createdAt,value
2022-08-08T00:00:55.399Z,29.25
2022-08-08T00:00:56.013Z,29.26
2022-08-08T00:01:00.329Z,29.25
2022-08-08T00:02:03.749Z,29.25
2022-08-08T00:02:31.471Z,29.25
2022-08-08T00:02:55.704Z,29.23
2022-08-08T00:03:31.559Z,29.23
2022-08-08T00:04:25.422Z,29.21
2022-08-08T00:04:49.141Z,29.18
2022-08-08T00:05:12.869Z,29.15
2022-08-08T00:05:43.972Z,29.16
2022-08-08T00:06:28.565Z,29.15
2022-08-08T00:06:55.296Z,29.11
2022-08-08T00:07:19.014Z,29.21
2022-08-08T00:07:33.751Z,29.17
2022-08-08T00:07:58.328Z,29.14
2022-08-08T00:08:49.225Z,29.15
2022-08-08T00:09:16.035Z,29.12
2022-08-08T00:09:38.393Z,29.11
2022-08-08T00:10:12.538Z,29.15
2022-08-08T00:10:35.760Z,29.15
2022-08-08T00:10:55.350Z,29.13
2022-08-08T00:11:17.656Z,29.14
2022-08-08T00:11:47.001Z,29.15
2022-08-08T00:12:09.475Z,29.16
2022-08-08T00:12:56.397Z,29.18
2022-08-08T00:14:17.393Z,29.18
2022-08-08T00:14:57.176Z,29.15
2022-08-08T00:15:24.439Z,29.11
2022-08-08T00:16:18.540Z,29.09
2022-08-08T00:16:54.845Z,29.11
2022-08-08T00:17:35.332Z,29.06
2022-08-08T00:18:04.652Z,29.08
2022-08-08T00:18:42.544Z,29.08
2022-08-08T00:19:02.088Z,29.10
2022-08-08T00:19:23.521Z,29.09
2022-08-08T00:19:40.990Z,29.07
2022-08-08T00:20:05.793Z,29.09
2022-08-08T00:20:31.557Z,29.08
2022-08-08T00:20:52.221Z,29.07
2022-08-08T00:21:05.962Z,29.08
2022-08-08T00:21:24.632Z,29.10
2022-08-08T00:21:43.826Z,29.12
2022-08-08T00:22:03.912Z,29.08
2022-08-08T00:22:21.025Z,29.08
2022-08-08T00:22:44.387Z,29.07
2022-08-08T00:23:10.141Z,29.07
2022-08-08T00:23:43.192Z,29.09
2022-08-08T00:24:03.143Z,29.08
2022-08-08T00:24:18.604Z,29.06
2022-08-08T00:24:39.380Z,29.07
2022-08-08T00:24:58.100Z,29.07
2022-08-08T00:25:22.283Z,29.07
2022-08-08T00:25:51.233Z,29.09
2022-08-08T00:26:05.041Z,29.10
2022-08-08T00:26:29.694Z,29.12
2022-08-08T00:26:45.098Z,29.07
2022-08-08T00:27:06.107Z,29.08
2022-08-08T00:27:20.054Z,29.08
2022-08-08T00:27:37.810Z,29.05
2022-08-08T00:27:56.711Z,29.07
2022-08-08T00:28:34.170Z,29.07
2022-08-08T00:28:48.634Z,29.07
2022-08-08T00:29:15.081Z,29.07
2022-08-08T00:29:47.076Z,29.06
2022-08-08T00:30:00.813Z,29.06
2022-08-08T00:30:15.569Z,29.07
2022-08-08T00:30:36.235Z,29.05
2022-08-08T00:31:00.541Z,29.07
2022-08-08T00:32:28.389Z,29.06
2022-08-08T00:32:32.595Z,29.05
2022-08-08T00:32:56.644Z,29.04
2022-08-08T00:33:16.030Z,29.04
2022-08-08T00:34:17.507Z,29.03
2022-08-08T00:34:38.031Z,29.03
2022-08-08T00:35:25.527Z,29.05
2022-08-08T00:35:52.495Z,29.02
2022-08-08T00:36:27.059Z,29.04
2022-08-08T00:36:51.797Z,29.02
2022-08-08T00:37:16.579Z,29.02
2022-08-08T00:37:57.193Z,28.99
2022-08-08T01:07:54.062Z,29.28
2022-08-08T01:08:21.017Z,29.28
2022-08-08T01:08:52.051Z,28.81
2022-08-08T01:09:42.547Z,28.82
2022-08-08T01:10:38.987Z,28.84
2022-08-08T01:11:28.927Z,28.80
2022-08-08T01:12:30.344Z,28.76
2022-08-08T01:12:55.134Z,28.78
2022-08-08T01:13:44.481Z,28.74
2022-08-08T01:32:13.423Z,29.14
2022-08-08T01:32:36.792Z,29.14
2022-08-08T01:33:24.017Z,28.69
2022-08-08T01:34:08.152Z,28.63
2022-08-08T01:34:33.992Z,28.67
2022-08-08T01:35:12.479Z,28.69
2022-08-08T01:35:38.469Z,28.69
2022-08-08T01:36:27.065Z,28.70
2022-08-08T01:36:48.645Z,28.69
2022-08-08T01:37:58.381Z,28.70
2022-08-08T01:38:29.262Z,28.70
2022-08-08T01:39:24.101Z,28.66
2022-08-08T01:40:06.039Z,28.67
2022-08-08T01:41:15.917Z,28.66
2022-08-08T01:41:34.409Z,28.68
2022-08-08T01:41:59.887Z,28.65
2022-08-08T01:42:19.184Z,28.65
2022-08-08T01:42:53.868Z,28.65
2022-08-08T01:43:34.587Z,28.64
2022-08-08T01:44:03.725Z,28.63
2022-08-08T01:44:22.226Z,28.66
2022-08-08T01:44:59.798Z,28.65
2022-08-08T01:45:31.274Z,28.68
2022-08-08T01:46:21.903Z,28.66
2022-08-08T01:46:52.168Z,28.66
2022-08-08T01:48:14.588Z,28.67
2022-08-08T01:48:16.900Z,28.64
2022-08-08T01:49:02.191Z,28.62
2022-08-08T01:49:22.787Z,28.59
2022-08-08T01:50:06.918Z,28.62
2022-08-08T01:50:34.156Z,28.65
2022-08-08T01:51:31.696Z,28.63
2022-08-08T01:52:43.598Z,28.64
2022-08-08T01:55:15.083Z,28.57
2022-08-08T01:55:15.539Z,28.55
2022-08-08T02:16:42.879Z,28.89
2022-08-08T02:17:20.694Z,28.89
2022-08-08T02:17:42.942Z,28.49
2022-08-08T02:18:04.326Z,28.49
2022-08-08T02:18:34.853Z,28.41
2022-08-08T02:18:58.785Z,28.42
2022-08-08T02:19:57.056Z,28.45
2022-08-08T02:21:02.101Z,28.46
2022-08-08T02:21:45.873Z,28.51
2022-08-08T02:22:34.227Z,28.50
2022-08-08T02:23:15.965Z,28.44
2022-08-08T02:23:35.327Z,28.48
2022-08-08T02:24:03.373Z,28.48
2022-08-08T02:24:29.071Z,28.48
2022-08-08T02:24:46.397Z,28.50
2022-08-08T02:25:19.371Z,28.51
2022-08-08T02:25:56.331Z,28.49
2022-08-08T02:26:23.786Z,28.47
2022-08-08T02:26:41.913Z,28.47
2022-08-08T02:27:17.451Z,28.45
2022-08-08T02:27:57.913Z,28.45
2022-08-08T02:28:35.331Z,28.47
2022-08-08T02:29:18.971Z,28.45
2022-08-08T02:29:57.976Z,28.47
2022-08-08T02:30:13.176Z,28.43
2022-08-08T02:30:49.858Z,28.44
2022-08-08T02:31:31.255Z,28.40
2022-08-08T02:32:27.243Z,28.41
2022-08-08T02:33:14.672Z,28.43
2022-08-08T02:33:41.680Z,28.35
2022-08-08T02:34:27.589Z,28.35
2022-08-08T02:35:11.277Z,28.32
2022-08-08T02:36:03.609Z,28.34
2022-08-08T02:36:34.262Z,28.35
2022-08-08T02:37:10.002Z,28.35
2022-08-08T02:38:25.248Z,28.36
2022-08-08T02:39:41.866Z,28.37
2022-08-08T02:39:58.482Z,28.37
2022-08-08T02:40:12.765Z,28.37
2022-08-08T02:40:50.322Z,28.35
2022-08-08T02:42:04.152Z,28.41
2022-08-08T02:42:18.016Z,28.45
2022-08-08T02:43:00.594Z,28.45
2022-08-08T02:44:38.479Z,28.37
2022-08-08T02:44:38.862Z,28.38
2022-08-08T02:45:26.509Z,28.32
2022-08-08T02:45:56.694Z,28.31
2022-08-08T02:46:29.887Z,28.29
2022-08-08T02:47:04.304Z,28.31
2022-08-08T02:47:23.325Z,28.30
2022-08-08T02:47:57.704Z,28.29
2022-08-08T02:48:45.265Z,28.29
2022-08-08T02:49:51.091Z,28.28
2022-08-08T02:50:29.620Z,28.30
2022-08-08T02:51:11.734Z,28.23
2022-08-08T02:52:31.257Z,28.25
2022-08-08T02:52:56.454Z,28.24
2022-08-08T02:53:21.182Z,28.26
2022-08-08T02:53:59.585Z,28.28
2022-08-08T02:54:17.266Z,28.27
2022-08-08T02:54:52.852Z,28.27
2022-08-08T02:55:36.504Z,28.23
2022-08-08T02:56:15.319Z,28.25
2022-08-08T02:56:52.146Z,28.28
2022-08-08T02:57:17.413Z,28.20
2022-08-08T03:01:47.320Z,28.30
2022-08-08T03:02:36.874Z,28.30
2022-08-08T03:03:46.065Z,27.83
2022-08-08T03:05:02.558Z,27.72
2022-08-08T03:05:02.647Z,27.60
2022-08-08T03:05:45.168Z,27.77
2022-08-08T03:06:24.242Z,27.86
2022-08-08T03:07:41.123Z,27.94
2022-08-08T03:08:32.039Z,28.09
2022-08-08T03:09:03.399Z,28.01
2022-08-08T03:09:42.720Z,27.97
2022-08-08T03:10:07.856Z,28.01
2022-08-08T03:10:44.730Z,28.03
2022-08-08T03:11:47.391Z,28.05
2022-08-08T03:12:36.749Z,27.93
2022-08-08T03:15:53.618Z,28.07
2022-08-08T03:15:57.499Z,28.11
2022-08-08T03:15:58.110Z,28.12
2022-08-08T03:16:04.920Z,28.13
2022-08-08T03:16:43.352Z,28.11
2022-08-08T03:17:06.882Z,28.08
2022-08-08T03:17:39.916Z,28.07
2022-08-08T03:18:31.282Z,28.08
2022-08-08T03:18:53.027Z,28.11
2022-08-08T03:19:36.588Z,28.09
2022-08-08T03:20:08.155Z,28.05
2022-08-08T03:20:23.221Z,27.98
2022-08-08T03:20:51.882Z,27.90
2022-08-08T03:21:09.954Z,27.93
2022-08-08T03:21:54.598Z,28.00
2022-08-08T03:22:00.202Z,27.99
2022-08-08T03:22:38.034Z,28.01
2022-08-08T03:22:57.164Z,28.02
2022-08-08T03:23:14.474Z,28.03
2022-08-08T03:23:56.284Z,28.05
2022-08-08T03:24:03.810Z,27.97
2022-08-08T03:24:18.042Z,27.95
2022-08-08T03:24:32.907Z,27.98
2022-08-08T03:24:46.436Z,28.01
2022-08-08T03:25:04.489Z,28.02
2022-08-08T03:25:36.193Z,28.04
2022-08-08T03:25:50.859Z,28.01
2022-08-08T03:26:03.998Z,28.06
2022-08-08T03:26:23.033Z,28.07
2022-08-08T03:26:42.032Z,28.06
2022-08-08T03:27:13.482Z,28.07
2022-08-08T03:27:27.691Z,28.05
2022-08-08T03:28:01.996Z,28.03
2022-08-08T03:28:43.058Z,28.06
2022-08-08T03:28:58.900Z,28.08
2022-08-08T03:29:16.770Z,28.05
2022-08-08T03:29:55.257Z,28.06
2022-08-08T03:30:09.857Z,28.06
2022-08-08T03:30:28.258Z,28.06
2022-08-08T03:30:49.144Z,27.99
2022-08-08T03:32:05.874Z,27.98
2022-08-08T03:32:37.872Z,27.92
2022-08-08T03:33:54.969Z,27.83
2022-08-08T03:33:56.354Z,27.77
2022-08-08T03:34:14.289Z,27.92
2022-08-08T03:34:27.291Z,27.94
2022-08-08T03:34:40.448Z,27.96
2022-08-08T03:34:53.382Z,27.97
2022-08-08T03:35:06.623Z,28.01
2022-08-08T03:35:23.070Z,27.99
2022-08-08T03:35:40.089Z,27.98
2022-08-08T03:35:52.946Z,27.94
2022-08-08T03:36:10.438Z,27.91
2022-08-08T03:36:27.872Z,27.89
2022-08-08T03:36:43.582Z,27.86
2022-08-08T03:36:59.456Z,27.90
2022-08-08T03:37:20.131Z,27.92
2022-08-08T03:38:52.945Z,27.95
2022-08-08T03:38:56.323Z,27.95
2022-08-08T03:39:14.246Z,28.00
2022-08-08T03:39:28.359Z,27.94
2022-08-08T03:40:00.056Z,27.95
2022-08-08T03:40:29.745Z,27.97
2022-08-08T03:40:52.533Z,28.01
2022-08-08T03:41:22.892Z,27.98
2022-08-08T03:42:13.092Z,27.98
2022-08-08T03:42:30.460Z,28.00
2022-08-08T03:42:45.713Z,28.00
2022-08-08T03:43:15.686Z,27.99
2022-08-08T03:43:38.302Z,28.02
2022-08-08T03:43:59.500Z,28.01
2022-08-08T03:44:12.897Z,28.05
2022-08-08T03:44:32.633Z,28.05
2022-08-08T03:44:51.978Z,28.03
2022-08-08T03:46:05.095Z,28.05
2022-08-08T03:46:05.745Z,28.05
2022-08-08T03:46:21.701Z,28.01
2022-08-08T03:46:48.609Z,27.89
2022-08-08T03:47:13.938Z,27.79
2022-08-08T03:47:45.512Z,27.77
2022-08-08T03:47:59.502Z,27.80
2022-08-08T03:48:21.338Z,27.86
2022-08-08T03:49:54.861Z,27.92
2022-08-08T03:49:57.740Z,27.84
2022-08-08T03:50:02.493Z,27.87
2022-08-08T03:50:19.993Z,27.75
2022-08-08T03:50:34.327Z,27.72
2022-08-08T03:50:48.561Z,27.75
2022-08-08T03:51:01.491Z,27.76
2022-08-08T03:51:14.347Z,27.80
2022-08-08T03:51:47.115Z,27.82
2022-08-08T03:52:00.348Z,27.78
2022-08-08T03:52:26.730Z,27.63
2022-08-08T03:52:44.541Z,27.55
2022-08-08T03:53:03.481Z,27.64
2022-08-08T03:53:24.254Z,27.65
2022-08-08T03:53:52.209Z,27.68
2022-08-08T03:54:09.436Z,27.65
2022-08-08T03:54:41.094Z,27.60
2022-08-08T03:55:10.196Z,27.64
2022-08-08T03:55:56.597Z,27.64
2022-08-08T03:56:04.415Z,27.56
2022-08-08T03:56:31.239Z,27.58
2022-08-08T03:56:46.446Z,27.56
2022-08-08T03:56:59.516Z,27.65
2022-08-08T03:58:32.274Z,27.61
2022-08-08T03:58:32.449Z,27.62
2022-08-08T03:58:38.415Z,27.54
2022-08-08T03:58:52.993Z,27.60
2022-08-08T03:59:05.932Z,27.61
2022-08-08T03:59:22.740Z,27.52
2022-08-08T04:00:02.898Z,27.54
2022-08-08T04:00:11.762Z,27.51
2022-08-08T04:00:26.620Z,27.59
2022-08-08T04:00:53.907Z,27.61
2022-08-08T04:01:23.372Z,27.69
2022-08-08T04:02:13.260Z,27.65
2022-08-08T04:02:33.346Z,27.69
2022-08-08T04:02:56.566Z,27.66
2022-08-08T04:03:11.129Z,27.69
2022-08-08T04:03:25.975Z,27.63
2022-08-08T04:04:01.687Z,27.51
2022-08-08T04:04:19.443Z,27.44
2022-08-08T04:04:39.968Z,27.43
2022-08-08T04:04:55.625Z,27.40
2022-08-08T04:05:10.228Z,27.39
2022-08-08T04:05:29.901Z,27.47
2022-08-08T04:05:47.923Z,27.49
2022-08-08T04:06:06.903Z,27.57
2022-08-08T04:06:19.761Z,27.50
2022-08-08T04:06:32.860Z,27.45
2022-08-08T04:06:56.553Z,27.40
2022-08-08T04:07:09.446Z,27.37
2022-08-08T04:07:22.737Z,27.38
2022-08-08T04:07:39.483Z,27.35
2022-08-08T04:07:52.416Z,27.44
2022-08-08T04:08:06.920Z,27.50
2022-08-08T04:08:33.430Z,27.55
2022-08-08T04:08:47.630Z,27.56
2022-08-08T04:09:08.859Z,27.50
2022-08-08T04:09:23.907Z,27.53
2022-08-08T04:10:00.105Z,27.49
2022-08-08T04:10:11.453Z,27.55
2022-08-08T04:10:31.987Z,27.58
2022-08-08T04:10:49.106Z,27.49
2022-08-08T04:11:17.704Z,27.54
2022-08-08T04:11:57.864Z,27.67
2022-08-08T04:12:12.894Z,27.75
2022-08-08T04:12:29.101Z,27.80
2022-08-08T04:12:42.182Z,27.82
2022-08-08T04:12:55.453Z,27.85
2022-08-08T04:13:17.534Z,27.84
2022-08-08T04:13:32.765Z,27.84
2022-08-08T04:14:34.311Z,27.81
2022-08-08T04:14:37.121Z,27.72
2022-08-08T04:14:50.802Z,27.76
2022-08-08T04:15:05.568Z,27.82
2022-08-08T04:15:22.280Z,27.83
2022-08-08T04:15:38.875Z,27.81
2022-08-08T04:15:55.104Z,27.85
2022-08-08T04:16:18.575Z,27.84
2022-08-08T04:16:38.591Z,27.86
2022-08-08T04:16:53.762Z,27.87
2022-08-08T04:17:15.609Z,27.82
2022-08-08T04:17:46.052Z,27.85
2022-08-08T04:18:16.518Z,27.85
2022-08-08T04:18:30.177Z,27.86
2022-08-08T04:18:44.855Z,27.78
2022-08-08T04:19:01.848Z,27.76
2022-08-08T04:19:23.598Z,27.72
2022-08-08T04:19:39.018Z,27.70
2022-08-08T04:19:52.052Z,27.69
2022-08-08T04:20:05.703Z,27.73
2022-08-08T04:20:21.258Z,27.75
2022-08-08T04:20:49.867Z,27.78
2022-08-08T04:21:06.332Z,27.82
2022-08-08T04:21:23.017Z,27.83
2022-08-08T04:21:41.473Z,27.86
2022-08-08T04:21:58.822Z,27.89
2022-08-08T04:22:16.504Z,27.87
2022-08-08T04:22:30.421Z,27.86
2022-08-08T04:22:45.389Z,27.78
2022-08-08T04:23:07.129Z,27.83
2022-08-08T04:23:20.927Z,27.80
2022-08-08T04:24:12.165Z,27.78
2022-08-08T04:24:19.123Z,27.81
2022-08-08T04:24:40.248Z,27.88
2022-08-08T04:24:54.210Z,27.76
2022-08-08T04:25:09.118Z,27.71
2022-08-08T04:25:30.174Z,27.65
2022-08-08T04:25:45.915Z,27.55
2022-08-08T04:25:59.237Z,27.52
2022-08-08T04:26:12.102Z,27.51
2022-08-08T04:26:26.097Z,27.48
2022-08-08T04:26:45.345Z,27.42
2022-08-08T04:27:42.572Z,27.37
2022-08-08T04:28:03.091Z,27.45
2022-08-08T04:28:36.729Z,27.52
2022-08-08T04:28:49.330Z,27.58
2022-08-08T04:29:07.651Z,27.68
2022-08-08T04:29:24.470Z,27.65
2022-08-08T04:29:37.922Z,27.54
2022-08-08T04:29:55.289Z,27.54
2022-08-08T04:30:17.778Z,27.52
2022-08-08T04:30:36.419Z,27.49
2022-08-08T04:30:55.267Z,27.56
2022-08-08T04:31:10.564Z,27.63
2022-08-08T04:31:59.248Z,27.64
2022-08-08T04:32:30.908Z,27.70
2022-08-08T04:32:49.987Z,27.75
2022-08-08T04:33:03.875Z,27.83
2022-08-08T04:33:16.775Z,27.84
2022-08-08T04:33:29.624Z,27.84
2022-08-08T04:33:54.710Z,27.85
2022-08-08T04:34:08.461Z,27.83
2022-08-08T04:34:21.345Z,27.84
2022-08-08T04:34:42.774Z,27.82
2022-08-08T04:35:02.076Z,27.84
2022-08-08T04:35:14.939Z,27.85
2022-08-08T04:35:29.401Z,27.87
2022-08-08T04:35:51.098Z,27.85
2022-08-08T04:36:04.362Z,27.84
2022-08-08T04:36:17.367Z,27.84
2022-08-08T04:36:30.231Z,27.84
2022-08-08T04:36:43.965Z,27.83
2022-08-08T04:36:59.278Z,27.85
2022-08-08T04:37:13.896Z,27.86
2022-08-08T04:37:32.172Z,27.89
2022-08-08T04:37:45.595Z,27.89
2022-08-08T04:38:02.083Z,27.87
2022-08-08T04:38:21.476Z,27.88
2022-08-08T04:38:34.999Z,27.89
2022-08-08T04:38:57.292Z,27.88
2022-08-08T04:40:03.377Z,27.88
2022-08-08T04:40:06.449Z,27.87
2022-08-08T04:40:24.027Z,27.82
2022-08-08T04:40:38.812Z,27.76
2022-08-08T04:41:04.293Z,27.79
2022-08-08T04:41:21.447Z,27.81
2022-08-08T04:41:36.683Z,27.79
2022-08-08T04:41:49.767Z,27.81
2022-08-08T04:42:03.798Z,27.83
2022-08-08T04:42:17.129Z,27.86
2022-08-08T04:42:33.820Z,27.87
2022-08-08T04:42:57.021Z,27.86
2022-08-08T04:43:10.705Z,27.86
2022-08-08T04:43:32.034Z,27.83
2022-08-08T04:43:57.516Z,27.84
2022-08-08T04:44:10.576Z,27.87
2022-08-08T04:44:26.789Z,27.86
2022-08-08T04:44:40.013Z,27.88
2022-08-08T04:44:55.630Z,27.87
2022-08-08T04:45:08.977Z,27.87
2022-08-08T04:45:25.773Z,27.90
2022-08-08T04:45:38.735Z,27.84
2022-08-08T04:45:51.798Z,27.81
2022-08-08T04:46:05.847Z,27.77
2022-08-08T04:46:19.890Z,27.79
2022-08-08T04:46:33.868Z,27.78
2022-08-08T04:46:47.346Z,27.79
2022-08-08T04:47:05.311Z,27.76
2022-08-08T04:47:24.930Z,27.79
2022-08-08T04:47:43.387Z,27.75
2022-08-08T04:48:00.343Z,27.68
2022-08-08T04:48:14.913Z,27.65
2022-08-08T04:48:28.194Z,27.63
2022-08-08T04:48:43.775Z,27.62
2022-08-08T04:48:56.722Z,27.68
2022-08-08T04:49:11.271Z,27.70
2022-08-08T04:49:28.860Z,27.63
2022-08-08T04:49:58.977Z,27.58
2022-08-08T04:50:24.131Z,27.69
2022-08-08T04:50:46.035Z,27.62
2022-08-08T04:50:59.006Z,27.64
2022-08-08T04:51:23.654Z,27.62
2022-08-08T04:51:48.443Z,27.58
2022-08-08T04:52:10.483Z,27.49
2022-08-08T04:52:25.490Z,27.41
2022-08-08T04:52:48.666Z,27.30
2022-08-08T04:53:14.144Z,27.27
2022-08-08T04:54:36.130Z,27.24
2022-08-08T04:54:39.071Z,27.28
2022-08-08T04:54:50.508Z,27.34
2022-08-08T04:55:04.475Z,27.40
2022-08-08T04:55:18.909Z,27.43
2022-08-08T04:55:47.322Z,27.48
2022-08-08T04:56:05.422Z,27.43
2022-08-08T04:56:18.841Z,27.29
2022-08-08T04:56:31.927Z,27.28
2022-08-08T04:56:44.853Z,27.26
2022-08-08T04:56:57.810Z,27.25
2022-08-08T04:57:11.166Z,27.27
2022-08-08T04:57:24.051Z,27.31
2022-08-08T04:57:38.027Z,27.32
2022-08-08T04:57:51.219Z,27.31
2022-08-08T04:58:08.150Z,27.28
2022-08-08T04:58:23.665Z,27.35
2022-08-08T04:58:38.128Z,27.43
2022-08-08T04:58:51.184Z,27.50
2022-08-08T04:59:04.252Z,27.49
2022-08-08T04:59:17.164Z,27.52
2022-08-08T04:59:42.238Z,27.55
2022-08-08T04:59:55.572Z,27.50
2022-08-08T05:00:13.048Z,27.52
2022-08-08T05:00:32.642Z,27.55
2022-08-08T05:00:48.292Z,27.60
2022-08-08T05:01:09.104Z,27.61
2022-08-08T05:01:24.125Z,27.59
2022-08-08T05:01:49.006Z,27.56
2022-08-08T05:02:02.078Z,27.59
2022-08-08T05:02:15.006Z,27.61
2022-08-08T05:02:33.611Z,27.65
2022-08-08T05:02:46.855Z,27.67
2022-08-08T05:03:05.986Z,27.67
2022-08-08T05:04:09.492Z,27.63
2022-08-08T05:04:09.599Z,27.65
2022-08-08T05:04:25.650Z,27.58
2022-08-08T05:04:41.823Z,27.61
2022-08-08T05:04:59.465Z,27.66
2022-08-08T05:05:19.946Z,27.59
2022-08-08T05:05:45.764Z,27.54
2022-08-08T05:05:58.623Z,27.64
2022-08-08T05:06:25.370Z,27.64
2022-08-08T05:06:39.008Z,27.67
2022-08-08T05:06:52.772Z,27.67
2022-08-08T05:07:05.762Z,27.68
2022-08-08T05:07:18.874Z,27.67
2022-08-08T05:07:37.936Z,27.62
2022-08-08T05:07:56.640Z,27.56
2022-08-08T05:08:12.745Z,27.58
2022-08-08T05:08:26.923Z,27.59
2022-08-08T05:08:44.233Z,27.62
2022-08-08T05:09:02.772Z,27.69
2022-08-08T05:09:16.514Z,27.70
2022-08-08T05:09:29.757Z,27.75
2022-08-08T05:09:49.491Z,27.71
2022-08-08T05:10:02.344Z,27.73
2022-08-08T05:10:16.825Z,27.69
2022-08-08T05:10:30.010Z,27.65
2022-08-08T05:10:42.985Z,27.65
2022-08-08T05:10:57.492Z,27.64
2022-08-08T05:11:22.554Z,27.63
2022-08-08T05:11:39.342Z,27.63
2022-08-08T05:11:56.588Z,27.66
2022-08-08T05:12:10.374Z,27.64
2022-08-08T05:12:36.794Z,27.68
2022-08-08T05:13:02.227Z,27.69
2022-08-08T05:13:17.863Z,27.66
2022-08-08T05:13:30.920Z,27.62
2022-08-08T05:13:55.005Z,27.59
2022-08-08T05:14:14.790Z,27.45
2022-08-08T05:14:29.240Z,27.35
2022-08-08T05:14:42.375Z,27.37
2022-08-08T05:14:57.570Z,27.41
2022-08-08T05:15:13.712Z,27.47
2022-08-08T05:16:48.231Z,27.49
2022-08-08T05:16:52.825Z,27.59
2022-08-08T05:16:54.507Z,27.52
2022-08-08T05:17:08.852Z,27.63
2022-08-08T05:17:23.862Z,27.61
2022-08-08T05:17:53.379Z,27.67
2022-08-08T05:18:07.521Z,27.72
2022-08-08T05:18:21.070Z,27.75
2022-08-08T05:18:36.991Z,27.77
2022-08-08T05:18:50.777Z,27.78
2022-08-08T05:19:03.656Z,27.82
2022-08-08T05:20:04.166Z,27.84
2022-08-08T05:20:09.655Z,27.85
2022-08-08T05:20:24.483Z,27.82
2022-08-08T05:20:48.443Z,27.83
2022-08-08T05:21:05.760Z,27.85
2022-08-08T05:21:19.372Z,27.91
2022-08-08T05:21:43.625Z,27.90
2022-08-08T05:22:06.845Z,27.82
2022-08-08T05:22:20.080Z,27.84
2022-08-08T05:22:33.068Z,27.86
2022-08-08T05:22:48.184Z,27.87
2022-08-08T05:23:02.111Z,27.87
2022-08-08T05:23:14.980Z,27.88
2022-08-08T05:23:29.986Z,27.90
2022-08-08T05:24:04.423Z,27.89
2022-08-08T05:24:22.475Z,27.89
2022-08-08T05:24:39.219Z,27.91
2022-08-08T05:24:53.402Z,27.87
2022-08-08T05:25:06.675Z,27.80
2022-08-08T05:25:21.616Z,27.76
2022-08-08T05:25:41.439Z,27.75
2022-08-08T05:26:00.228Z,27.71
2022-08-08T05:26:14.261Z,27.76
2022-08-08T05:26:27.522Z,27.81
2022-08-08T05:26:41.684Z,27.84
2022-08-08T05:26:56.969Z,27.76
2022-08-08T05:27:09.815Z,27.76
2022-08-08T05:27:22.832Z,27.75
2022-08-08T05:27:41.302Z,27.76
2022-08-08T05:27:55.125Z,27.74
2022-08-08T05:28:09.309Z,27.76
2022-08-08T05:28:48.431Z,27.79
2022-08-08T05:28:57.437Z,27.80
2022-08-08T05:29:17.953Z,27.80
2022-08-08T05:29:30.789Z,27.75
2022-08-08T05:29:44.052Z,27.70
2022-08-08T05:29:57.612Z,27.68
2022-08-08T05:30:11.912Z,27.65
2022-08-08T05:30:28.513Z,27.69
2022-08-08T05:30:47.378Z,27.71
2022-08-08T05:31:02.042Z,27.77
2022-08-08T05:32:03.371Z,27.78
2022-08-08T05:32:07.416Z,27.76
2022-08-08T05:32:24.786Z,27.75
2022-08-08T05:32:40.929Z,27.74
2022-08-08T05:32:55.264Z,27.65
2022-08-08T05:33:10.786Z,27.64
2022-08-08T05:33:23.855Z,27.61
2022-08-08T05:33:48.356Z,27.63
2022-08-08T05:34:33.114Z,27.59
2022-08-08T05:34:50.839Z,27.52
2022-08-08T05:35:06.789Z,27.58
2022-08-08T05:35:23.525Z,27.63
2022-08-08T05:35:39.717Z,27.67
2022-08-08T05:35:54.414Z,27.59
2022-08-08T05:36:07.602Z,27.53
2022-08-08T05:36:38.138Z,27.55
2022-08-08T05:36:56.495Z,27.65
2022-08-08T05:37:18.774Z,27.67
2022-08-08T05:37:51.814Z,27.71
2022-08-08T05:38:30.129Z,27.66
2022-08-08T05:38:46.667Z,27.72
2022-08-08T05:38:59.648Z,27.67
2022-08-08T05:39:12.556Z,27.68
2022-08-08T05:39:28.600Z,27.64
2022-08-08T05:39:52.653Z,27.65
2022-08-08T05:40:06.591Z,27.69
2022-08-08T05:40:27.944Z,27.73
2022-08-08T05:40:48.896Z,27.70
2022-08-08T05:41:03.736Z,27.76
2022-08-08T05:41:23.214Z,27.74
2022-08-08T05:41:54.931Z,27.70
2022-08-08T05:42:08.600Z,27.61
2022-08-08T05:42:33.911Z,27.64
2022-08-08T05:42:51.771Z,27.68
2022-08-08T05:43:38.414Z,27.69
2022-08-08T05:44:03.637Z,27.70
2022-08-08T05:44:26.662Z,27.76
2022-08-08T05:44:46.249Z,27.70
2022-08-08T05:45:10.371Z,27.73
2022-08-08T05:45:42.916Z,27.74
2022-08-08T05:46:08.104Z,27.71
2022-08-08T05:46:21.363Z,27.70
2022-08-08T05:46:38.040Z,27.68
2022-08-08T05:46:52.664Z,27.67
2022-08-08T05:47:05.752Z,27.62
2022-08-08T05:47:21.152Z,27.58
2022-08-08T05:47:52.594Z,27.59
2022-08-08T05:48:09.714Z,27.63
2022-08-08T05:48:28.600Z,27.67
2022-08-08T05:48:44.169Z,27.74
2022-08-08T05:49:11.043Z,27.76
2022-08-08T05:49:24.320Z,27.78
2022-08-08T05:49:41.143Z,27.79
2022-08-08T05:50:07.907Z,27.77
2022-08-08T05:50:21.043Z,27.82
2022-08-08T05:50:34.025Z,27.84
2022-08-08T05:50:47.344Z,27.87
2022-08-08T05:51:15.176Z,27.88
2022-08-08T05:51:37.477Z,27.84
2022-08-08T05:52:01.803Z,27.80
2022-08-08T05:52:14.687Z,27.81
2022-08-08T05:52:32.149Z,27.83
2022-08-08T05:52:48.528Z,27.83
2022-08-08T05:53:54.722Z,27.88
2022-08-08T05:54:26.049Z,27.91
2022-08-08T05:54:27.676Z,27.93
2022-08-08T05:54:49.747Z,27.90
2022-08-08T05:55:10.797Z,27.94
2022-08-08T05:55:27.213Z,28.00
2022-08-08T05:56:11.656Z,27.99
2022-08-08T05:56:28.655Z,27.89
2022-08-08T05:56:47.599Z,27.86
2022-08-08T05:57:01.160Z,27.86
2022-08-08T05:57:36.688Z,27.86
2022-08-08T05:58:03.948Z,27.91
2022-08-08T05:58:20.165Z,28.01
2022-08-08T05:58:34.810Z,28.00
2022-08-08T05:58:53.799Z,27.93
2022-08-08T05:59:53.548Z,27.85
2022-08-08T06:00:25.054Z,27.81
2022-08-08T06:00:34.044Z,27.92
2022-08-08T06:00:56.907Z,27.94
2022-08-08T06:01:11.731Z,27.96
2022-08-08T06:01:52.481Z,27.99
2022-08-08T06:02:43.526Z,27.97
2022-08-08T06:03:24.888Z,28.01
2022-08-08T06:03:45.139Z,27.91
2022-08-08T06:04:08.504Z,27.94
2022-08-08T06:04:28.354Z,27.96
2022-08-08T06:04:41.325Z,27.92
2022-08-08T06:05:01.506Z,27.88
2022-08-08T06:05:33.615Z,27.88
2022-08-08T06:05:56.675Z,27.83
2022-08-08T06:06:12.400Z,27.83
2022-08-08T06:06:32.448Z,27.88
2022-08-08T06:06:48.238Z,27.93
2022-08-08T06:07:04.047Z,27.99
2022-08-08T06:07:16.912Z,28.03
2022-08-08T06:07:29.962Z,28.01
2022-08-08T06:07:43.983Z,28.02
2022-08-08T06:08:01.880Z,28.03
2022-08-08T06:08:33.265Z,28.02
2022-08-08T06:08:55.206Z,27.98
2022-08-08T06:09:59.012Z,27.90
2022-08-08T06:10:01.119Z,27.90
2022-08-08T06:10:24.547Z,27.91
2022-08-08T06:10:38.425Z,27.95
2022-08-08T06:10:53.932Z,27.97
2022-08-08T06:11:07.386Z,28.03
2022-08-08T06:11:21.283Z,28.08
2022-08-08T06:11:37.093Z,28.08
2022-08-08T06:12:00.553Z,28.06
2022-08-08T06:12:14.314Z,28.12
2022-08-08T06:12:31.772Z,28.13
2022-08-08T06:12:45.828Z,28.14
2022-08-08T06:13:02.396Z,28.13
2022-08-08T06:13:22.010Z,28.10
2022-08-08T06:13:47.519Z,28.05
2022-08-08T06:14:01.201Z,28.04
2022-08-08T06:14:17.999Z,28.05
2022-08-08T06:14:32.129Z,28.06
2022-08-08T06:14:48.909Z,28.06
2022-08-08T06:15:03.801Z,28.07
2022-08-08T06:15:19.069Z,28.09
2022-08-08T06:15:50.575Z,28.09
2022-08-08T06:16:06.798Z,28.08
2022-08-08T06:16:27.434Z,28.07
2022-08-08T06:16:43.412Z,28.08
2022-08-08T06:17:01.604Z,28.08
2022-08-08T06:17:19.443Z,28.11
2022-08-08T06:17:51.453Z,28.10
2022-08-08T06:18:18.426Z,28.08
2022-08-08T06:18:34.274Z,28.07
2022-08-08T06:18:50.276Z,28.13
2022-08-08T06:19:04.209Z,28.16
2022-08-08T06:19:17.353Z,28.18
2022-08-08T06:19:33.378Z,28.21
2022-08-08T06:19:48.399Z,28.25
2022-08-08T06:20:05.413Z,28.21
2022-08-08T06:20:25.774Z,28.22
2022-08-08T06:20:38.967Z,28.14
2022-08-08T06:20:59.555Z,28.14
2022-08-08T06:21:28.573Z,28.11
2022-08-08T06:21:56.638Z,28.13
2022-08-08T06:22:43.469Z,28.19
2022-08-08T06:22:57.861Z,28.31
2022-08-08T06:23:11.433Z,28.34
2022-08-08T06:23:52.908Z,28.36
2022-08-08T06:24:05.215Z,28.40
2022-08-08T06:24:30.286Z,28.31
2022-08-08T06:24:47.030Z,28.21
2022-08-08T06:25:04.658Z,28.22
2022-08-08T06:25:18.379Z,28.20
2022-08-08T06:26:41.423Z,28.15
2022-08-08T06:26:43.229Z,28.12
2022-08-08T06:26:58.177Z,28.14
2022-08-08T06:27:11.146Z,28.17
2022-08-08T06:27:50.603Z,28.15
2022-08-08T06:28:05.878Z,28.14
2022-08-08T06:28:29.449Z,28.21
2022-08-08T06:29:02.448Z,28.22